Time;durP1;ratioP1;P1;durP2;ratioP2;P2;SDS_P1;SDS_P2;PMS_P1;PMS_P2;Temp;Humidity;BMP_temperature;BMP_pressure;BME280_temperature;BME280_humidity;BME280_pressure;Samples;Min_cycle;Max_cycle;Signal;HPM_P1;HPM_P2
2023/06/14 00:02:08;;;;;;;7.53;2.80;;;13.70;99.90;13.10;100720;;;;579493;244;24155;-78
2023/06/14 00:04:37;;;;;;;2.23;2.07;;;13.80;99.90;13.10;100721;;;;579725;244;24072;-78
2023/06/14 00:07:07;;;;;;;3.73;1.80;;;13.80;99.90;13.20;100714;;;;579720;244;24077;-77
2023/06/14 00:09:32;;;;;;;6.03;2.50;;;13.90;99.90;13.20;100718;;;;578915;244;25117;-80
2023/06/14 00:12:00;;;;;;;5.27;2.60;;;13.80;99.90;13.20;100705;;;;579534;244;24060;-79
2023/06/14 00:14:28;;;;;;;6.70;2.17;;;13.90;99.90;13.20;100703;;;;579566;244;24046;-78
2023/06/14 00:16:59;;;;;;;2.80;2.30;;;13.90;99.90;13.30;100703;;;;579525;244;24051;-78
2023/06/14 00:19:29;;;;;;;8.37;2.57;;;13.90;99.90;13.30;100709;;;;579583;244;24044;-79
2023/06/14 00:21:55;;;;;;;3.47;2.20;;;13.90;99.90;13.30;100703;;;;579460;244;24057;-78
2023/06/14 00:24:23;;;;;;;4.30;2.13;;;13.90;99.90;13.30;100701;;;;579556;244;24058;-78
2023/06/14 00:26:51;;;;;;;3.00;2.23;;;14.00;99.90;13.30;100704;;;;579380;244;24070;-79
2023/06/14 00:29:19;;;;;;;2.20;2.07;;;14.00;99.90;13.30;100705;;;;579237;244;24064;-79
2023/06/14 00:31:47;;;;;;;7.00;2.03;;;14.00;99.90;13.40;100695;;;;578927;244;24051;-78
2023/06/14 00:34:15;;;;;;;8.33;2.23;;;14.00;99.90;13.40;100709;;;;579281;244;24076;-78
2023/06/14 00:36:43;;;;;;;1.90;1.77;;;14.00;99.90;13.50;100704;;;;579279;244;24052;-78
2023/06/14 00:39:11;;;;;;;9.43;2.60;;;14.20;99.90;13.60;100700;;;;579282;244;24072;-77
2023/06/14 00:41:42;;;;;;;2.90;2.33;;;14.10;99.90;13.60;100704;;;;579453;244;24045;-78
2023/06/14 00:44:07;;;;;;;3.67;2.20;;;14.20;99.90;13.60;100696;;;;579076;244;24092;-78
2023/06/14 00:46:35;;;;;;;6.03;2.70;;;14.30;99.90;13.70;100699;;;;579208;244;24166;-78
2023/06/14 00:49:03;;;;;;;5.13;2.63;;;14.30;99.90;13.70;100709;;;;579274;244;24041;-78
2023/06/14 00:51:31;;;;;;;3.97;2.30;;;14.30;99.90;13.70;100696;;;;579231;244;24053;-78
2023/06/14 00:53:59;;;;;;;3.17;2.17;;;14.30;99.90;13.70;100702;;;;579244;244;24060;-77
2023/06/14 00:56:27;;;;;;;5.20;2.07;;;14.30;99.90;13.70;100705;;;;579222;244;24053;-78
2023/06/14 00:58:58;;;;;;;3.30;2.17;;;14.30;99.90;13.70;100700;;;;578867;244;24109;-77
2023/06/14 01:01:24;;;;;;;2.47;2.10;;;14.30;99.90;13.70;100702;;;;578615;244;24073;-79
2023/06/14 01:03:51;;;;;;;2.80;2.20;;;14.40;99.90;13.70;100707;;;;580703;243;24138;-79
2023/06/14 01:06:41;;;;;;;4.30;2.33;;;14.30;99.90;13.70;100703;;;;580272;243;24070;-79
2023/06/14 01:09:21;;;;;;;2.40;2.20;;;14.40;99.90;13.70;100702;;;;579085;244;24096;-78
2023/06/14 01:11:52;;;;;;;3.53;2.33;;;14.40;99.90;13.70;100699;;;;579437;244;24058;-78
2023/06/14 01:14:23;;;;;;;6.87;2.97;;;14.40;99.90;13.70;100697;;;;579356;244;24106;-79
2023/06/14 01:16:49;;;;;;;2.60;2.40;;;14.40;99.90;13.70;100694;;;;579514;244;24061;-79
2023/06/14 01:19:15;;;;;;;6.03;2.37;;;14.40;99.90;13.70;100698;;;;579665;244;24104;-79
2023/06/14 01:21:43;;;;;;;2.53;2.33;;;14.30;99.90;13.60;100695;;;;579496;244;24053;-78
2023/06/14 01:24:11;;;;;;;1.97;1.87;;;14.30;99.90;13.60;100690;;;;579466;244;25178;-80
2023/06/14 01:26:45;;;;;;;6.40;2.27;;;14.30;99.90;13.60;100689;;;;579454;244;24041;-79
2023/06/14 01:29:07;;;;;;;5.33;3.30;;;14.20;99.90;13.50;100688;;;;579179;244;24071;-79
2023/06/14 01:31:41;;;;;;;7.87;2.73;;;14.20;99.90;13.50;100695;;;;579378;244;24092;-79
2023/06/14 01:34:07;;;;;;;3.07;2.33;;;14.10;99.90;13.50;100678;;;;579032;244;24082;-78
2023/06/14 01:36:36;;;;;;;3.37;2.37;;;14.10;99.90;13.40;100680;;;;579195;244;24075;-78
2023/06/14 01:39:03;;;;;;;2.87;2.40;;;14.10;99.90;13.40;100686;;;;578933;244;24060;-78
2023/06/14 01:41:32;;;;;;;6.00;2.10;;;14.10;99.90;13.40;100681;;;;578923;244;24078;-78
2023/06/14 01:43:56;;;;;;;5.20;2.70;;;14.00;99.90;13.30;100682;;;;578809;244;24093;-78
2023/06/14 01:46:24;;;;;;;2.63;2.40;;;14.00;99.90;13.30;100677;;;;581969;244;24070;-78
2023/06/14 01:48:52;;;;;;;4.60;2.87;;;14.00;99.90;13.30;100680;;;;579168;244;24046;-78
2023/06/14 01:51:20;;;;;;;4.47;2.30;;;13.90;99.90;13.30;100686;;;;579249;244;24111;-77
2023/06/14 01:53:48;;;;;;;2.93;2.40;;;14.00;99.90;13.30;100691;;;;579174;244;24041;-79
2023/06/14 01:56:16;;;;;;;3.73;2.47;;;13.90;99.90;13.30;100687;;;;579294;244;24125;-80
2023/06/14 01:58:44;;;;;;;3.60;2.67;;;13.90;99.90;13.40;100688;;;;578914;244;24047;-79
2023/06/14 02:01:15;;;;;;;4.60;2.50;;;14.00;99.90;13.40;100686;;;;578808;244;24077;-79
2023/06/14 02:03:40;;;;;;;2.23;2.03;;;14.00;99.90;13.40;100677;;;;578408;244;24130;-79
2023/06/14 02:06:08;;;;;;;3.90;2.57;;;14.00;99.90;13.40;100677;;;;579220;244;24049;-78
2023/06/14 02:08:36;;;;;;;5.60;2.47;;;14.00;99.90;13.40;100676;;;;579243;244;24132;-78
2023/06/14 02:11:04;;;;;;;3.40;2.63;;;14.10;99.90;13.50;100676;;;;579222;244;24046;-79
2023/06/14 02:13:32;;;;;;;2.87;2.57;;;14.10;99.90;13.50;100675;;;;579537;242;24120;-78
2023/06/14 02:16:00;;;;;;;4.17;2.77;;;14.10;99.90;13.50;100679;;;;580581;243;24136;-79
2023/06/14 02:18:28;;;;;;;3.70;2.27;;;14.10;99.90;13.50;100679;;;;580172;244;24075;-78
2023/06/14 02:20:56;;;;;;;3.93;2.70;;;14.10;99.90;13.50;100675;;;;580059;244;24057;-78
2023/06/14 02:23:23;;;;;;;4.30;2.83;;;14.20;99.90;13.60;100673;;;;579844;244;24054;-79
2023/06/14 02:25:51;;;;;;;5.07;2.70;;;14.20;99.90;13.60;100685;;;;579739;244;24034;-79
2023/06/14 02:28:20;;;;;;;4.43;2.93;;;14.20;99.90;13.60;100677;;;;579794;244;24069;-77
2023/06/14 02:30:47;;;;;;;7.80;2.90;;;14.20;99.90;13.60;100681;;;;579721;244;24067;-78
2023/06/14 02:33:15;;;;;;;4.63;2.53;;;14.10;99.90;13.60;100683;;;;579519;244;24126;-78
2023/06/14 02:35:43;;;;;;;9.53;3.47;;;14.20;99.90;13.70;100684;;;;579035;244;24068;-79
2023/06/14 02:38:11;;;;;;;11.23;2.83;;;14.30;99.90;13.70;100684;;;;579548;244;24054;-77
2023/06/14 02:40:42;;;;;;;3.53;2.53;;;14.30;99.90;13.70;100684;;;;579508;244;24062;-79
2023/06/14 02:43:07;;;;;;;3.00;2.50;;;14.40;99.90;13.80;100682;;;;579515;244;24104;-78
2023/06/14 02:45:35;;;;;;;5.60;2.63;;;14.40;99.90;13.80;100676;;;;579629;244;24062;-78
2023/06/14 02:48:07;;;;;;;2.90;2.70;;;14.40;99.90;13.90;100685;;;;579640;244;24053;-77
2023/06/14 02:50:32;;;;;;;2.43;2.23;;;14.50;99.90;13.90;100681;;;;578791;244;24074;-76
2023/06/14 02:53:00;;;;;;;2.60;2.40;;;14.50;99.90;14.00;100683;;;;579296;244;24128;-78
2023/06/14 02:55:28;;;;;;;2.73;2.53;;;14.60;99.90;14.10;100689;;;;579279;244;24064;-78
2023/06/14 02:57:56;;;;;;;4.07;2.20;;;14.60;99.90;14.20;100679;;;;579135;244;24069;-78
2023/06/14 03:00:24;;;;;;;8.23;2.50;;;14.70;99.90;14.30;100672;;;;578952;244;24152;-78
2023/06/14 03:02:52;;;;;;;2.60;2.40;;;14.80;99.90;14.40;100667;;;;579156;244;24057;-80
2023/06/14 03:05:21;;;;;;;3.33;2.90;;;14.90;99.90;14.50;100673;;;;578844;244;24082;-79
2023/06/14 03:07:50;;;;;;;3.20;2.77;;;15.10;99.90;14.50;100671;;;;579215;244;24200;-79
2023/06/14 03:10:16;;;;;;;5.63;3.50;;;15.20;99.90;14.60;100668;;;;578954;244;24136;-79
2023/06/14 03:12:45;;;;;;;6.40;2.70;;;15.30;99.90;14.80;100677;;;;579287;244;24069;-79
2023/06/14 03:15:13;;;;;;;4.40;2.60;;;15.30;99.90;15.00;100674;;;;588721;244;24061;-79
2023/06/14 03:17:45;;;;;;;4.23;2.70;;;15.60;99.90;15.20;100679;;;;579296;244;24049;-79
2023/06/14 03:20:08;;;;;;;14.53;3.23;;;15.70;99.90;15.20;100679;;;;579184;244;24052;-79
2023/06/14 03:22:37;;;;;;;12.10;3.30;;;15.80;99.90;15.20;100681;;;;579273;244;24057;-80
2023/06/14 03:25:09;;;;;;;3.13;2.83;;;15.80;99.90;15.20;100685;;;;579473;242;24120;-79
2023/06/14 03:27:33;;;;;;;5.73;2.93;;;15.80;99.90;15.30;100689;;;;579852;243;24076;-79
2023/06/14 03:30:01;;;;;;;12.90;3.83;;;15.90;99.90;15.30;100687;;;;580248;244;24139;-78
2023/06/14 03:32:33;;;;;;;14.53;4.00;;;15.90;99.90;15.50;100695;;;;580006;244;24082;-78
2023/06/14 03:34:57;;;;;;;10.50;3.83;;;16.00;99.90;15.60;100690;;;;579842;244;24053;-79
2023/06/14 03:37:25;;;;;;;8.33;3.83;;;16.10;99.90;15.70;100692;;;;579477;244;24101;-79
2023/06/14 03:39:53;;;;;;;5.57;3.60;;;16.20;99.90;15.70;100692;;;;579813;244;24054;-79
2023/06/14 03:42:21;;;;;;;10.33;3.43;;;16.20;99.90;15.60;100684;;;;579739;244;24138;-79
2023/06/14 03:44:49;;;;;;;3.67;3.13;;;16.20;99.90;15.60;100695;;;;579513;244;24073;-79
2023/06/14 03:47:17;;;;;;;4.07;2.73;;;16.10;99.90;15.50;100700;;;;579517;244;24073;-78
2023/06/14 03:49:46;;;;;;;4.80;3.00;;;16.00;99.90;15.40;100700;;;;579485;244;24056;-78
2023/06/14 03:52:14;;;;;;;3.13;2.70;;;16.00;99.90;15.40;100697;;;;579506;244;24083;-78
2023/06/14 03:54:43;;;;;;;6.80;2.90;;;16.00;99.90;15.40;100697;;;;579479;244;24054;-78
2023/06/14 03:57:10;;;;;;;5.60;3.00;;;16.00;99.90;15.40;100706;;;;579487;244;24085;-79
2023/06/14 03:59:37;;;;;;;5.03;3.00;;;15.90;99.90;15.30;100703;;;;579096;244;25126;-79
2023/06/14 04:02:09;;;;;;;3.27;2.90;;;15.90;99.90;15.30;100709;;;;579073;244;24044;-80
2023/06/14 04:04:35;;;;;;;3.67;2.70;;;15.90;99.90;15.30;100699;;;;578550;244;24061;-79
2023/06/14 04:07:04;;;;;;;5.50;2.77;;;15.90;99.90;15.30;100698;;;;578782;244;24119;-79
2023/06/14 04:09:30;;;;;;;9.20;3.77;;;15.90;99.90;15.40;100707;;;;578988;244;24069;-79
2023/06/14 04:11:58;;;;;;;3.40;3.10;;;15.90;99.90;15.40;100716;;;;579167;244;24063;-79
2023/06/14 04:14:30;;;;;;;4.53;3.40;;;15.90;99.90;15.40;100709;;;;579293;244;24053;-79
2023/06/14 04:16:54;;;;;;;4.33;3.00;;;15.90;99.90;15.50;100706;;;;578591;244;24053;-79
2023/06/14 04:19:22;;;;;;;6.37;3.43;;;16.00;99.90;15.50;100705;;;;579300;244;24081;-80
2023/06/14 04:21:50;;;;;;;4.73;3.10;;;16.00;99.90;15.50;100703;;;;579313;244;24076;-79
2023/06/14 04:24:21;;;;;;;8.43;3.93;;;16.00;99.90;15.50;100710;;;;579359;244;24083;-78
2023/06/14 04:26:49;;;;;;;4.90;3.50;;;16.00;99.90;15.60;100705;;;;578967;244;24060;-79
2023/06/14 04:29:19;;;;;;;7.27;3.27;;;16.10;99.90;15.70;100703;;;;578775;244;24088;-80
2023/06/14 04:31:44;;;;;;;7.30;4.23;;;16.20;99.90;15.90;100701;;;;579090;244;24068;-79
2023/06/14 04:34:16;;;;;;;7.83;4.03;;;16.30;99.90;16.10;100703;;;;579282;244;24051;-79
2023/06/14 04:36:41;;;;;;;8.87;3.60;;;16.60;99.90;16.50;100706;;;;579294;242;24084;-80
2023/06/14 04:39:08;;;;;;;9.00;4.00;;;17.00;99.90;16.80;100711;;;;580176;243;24072;-79
2023/06/14 04:41:36;;;;;;;4.63;3.63;;;17.30;99.90;17.10;100706;;;;580182;244;24052;-80
2023/06/14 04:44:04;;;;;;;14.23;3.67;;;17.60;99.90;17.40;100708;;;;579999;244;24061;-78
2023/06/14 04:46:32;;;;;;;11.27;4.37;;;17.90;99.90;17.60;100702;;;;579926;244;24055;-78
2023/06/14 04:49:01;;;;;;;14.82;4.72;;;18.20;99.90;17.90;100706;;;;574771;244;35160;-79
2023/06/14 04:51:33;;;;;;;9.07;4.00;;;18.80;99.90;18.30;100706;;;;579880;244;24076;-78
2023/06/14 04:54:01;;;;;;;9.47;3.83;;;18.80;99.90;18.60;100704;;;;579316;244;24068;-79
2023/06/14 04:56:25;;;;;;;15.57;4.57;;;19.10;99.90;19.00;100710;;;;578952;244;24128;-79
2023/06/14 04:58:56;;;;;;;5.30;3.43;;;20.20;99.90;19.70;100708;;;;578941;244;24071;-79
2023/06/14 05:01:23;;;;;;;10.17;4.17;;;20.80;99.90;20.30;100712;;;;579535;244;23156;-79
2023/06/14 05:03:52;;;;;;;8.10;3.90;;;21.30;99.90;20.80;100714;;;;579476;244;24097;-80
2023/06/14 05:06:21;;;;;;;8.77;4.87;;;21.70;99.90;21.20;100712;;;;579535;244;24160;-78
2023/06/14 05:08:49;;;;;;;6.77;4.33;;;22.00;99.90;21.50;100719;;;;579085;244;24123;-79
2023/06/14 05:11:20;;;;;;;4.50;3.63;;;22.00;99.90;21.80;100717;;;;579485;244;24061;-79
2023/06/14 05:13:49;;;;;;;9.93;4.93;;;22.70;99.90;22.20;100718;;;;579301;244;24057;-80
2023/06/14 05:16:19;;;;;;;8.27;4.43;;;23.00;99.90;22.50;100713;;;;579175;244;24053;-79
2023/06/14 05:18:47;;;;;;;7.43;4.10;;;23.00;99.90;22.60;100716;;;;579167;244;24108;-79
2023/06/14 05:21:15;;;;;;;9.97;4.50;;;23.20;99.90;23.00;100722;;;;579173;244;24061;-80
2023/06/14 05:23:41;;;;;;;9.03;3.97;;;23.50;99.90;23.20;100722;;;;579182;244;24099;-79
2023/06/14 05:26:09;;;;;;;9.40;4.40;;;23.80;99.90;23.50;100721;;;;579267;244;24049;-79
2023/06/14 05:28:38;;;;;;;6.30;4.17;;;24.00;99.90;23.70;100716;;;;579262;244;23074;-81
2023/06/14 05:31:08;;;;;;;9.23;5.10;;;24.20;99.90;23.70;100724;;;;579177;244;24096;-80
2023/06/14 05:33:42;;;;;;;9.00;5.87;;;24.30;99.90;23.60;100722;;;;579276;244;24101;-81
2023/06/14 05:36:09;;;;;;;12.73;4.93;;;24.20;99.70;23.60;100725;;;;578800;244;24079;-80
2023/06/14 05:38:35;;;;;;;9.10;5.17;;;24.20;99.50;23.70;100719;;;;579001;244;23083;-79
2023/06/14 05:41:04;;;;;;;9.17;5.73;;;24.30;98.20;23.80;100723;;;;578999;244;23083;-80
2023/06/14 05:43:32;;;;;;;15.70;5.03;;;24.30;98.20;23.90;100730;;;;579301;244;24120;-80
2023/06/14 05:46:00;;;;;;;12.70;5.70;;;24.40;97.80;23.90;100738;;;;579252;244;23054;-79
2023/06/14 05:48:29;;;;;;;8.60;5.00;;;24.40;96.90;23.90;100725;;;;579656;243;24095;-79
2023/06/14 05:51:00;;;;;;;7.83;5.10;;;24.40;96.90;24.00;100738;;;;580500;243;24038;-80
2023/06/14 05:53:25;;;;;;;18.47;6.57;;;24.50;96.40;24.10;100735;;;;579649;244;24067;-80
2023/06/14 05:55:54;;;;;;;10.73;5.87;;;24.60;95.60;24.20;100746;;;;580035;244;23063;-79
2023/06/14 05:58:22;;;;;;;11.67;6.30;;;24.70;95.50;24.40;100749;;;;579675;244;24092;-79
2023/06/14 06:00:51;;;;;;;10.60;6.77;;;24.90;95.10;24.60;100740;;;;579348;244;24107;-79
2023/06/14 06:03:19;;;;;;;18.47;6.80;;;25.10;94.30;25.00;100747;;;;579212;244;23124;-79
2023/06/14 06:05:46;;;;;;;11.27;6.80;;;25.40;92.30;25.30;100741;;;;579463;244;24049;-79
2023/06/14 06:08:16;;;;;;;8.97;6.30;;;25.70;90.90;25.50;100742;;;;579068;244;24123;-80
2023/06/14 06:10:45;;;;;;;9.93;5.87;;;25.90;89.90;26.60;100745;;;;579469;244;23118;-79
2023/06/14 06:13:10;;;;;;;14.47;6.60;;;26.90;90.00;28.30;100755;;;;579301;244;23075;-78
2023/06/14 06:15:40;;;;;;;16.20;6.70;;;28.50;86.30;30.00;100761;;;;579565;244;24094;-81
2023/06/14 06:18:10;;;;;;;12.45;6.15;;;30.20;77.20;31.60;100758;;;;579598;244;23052;-80
2023/06/14 06:20:39;;;;;;;7.43;5.12;;;32.80;64.10;32.40;100769;;;;579596;244;23056;-79
2023/06/14 06:23:09;;;;;;;11.15;5.25;;;33.50;60.70;33.00;100761;;;;579524;244;23073;-80
2023/06/14 06:25:39;;;;;;;16.48;5.35;;;34.30;58.20;33.90;100764;;;;588684;244;24075;-79
2023/06/14 06:28:08;;;;;;;12.90;5.60;;;34.20;58.10;34.00;100779;;;;579278;244;23087;-80
2023/06/14 06:30:36;;;;;;;20.50;7.00;;;34.60;56.70;33.90;100778;;;;579352;244;23058;-80
2023/06/14 06:33:04;;;;;;;12.02;6.30;;;34.60;56.00;33.50;100772;;;;579314;244;23077;-80
2023/06/14 06:35:34;;;;;;;13.32;7.47;;;34.10;55.30;33.70;100778;;;;579260;244;23074;-78
2023/06/14 06:38:02;;;;;;;17.25;8.30;;;34.10;55.30;34.50;100776;;;;579061;244;24141;-79
2023/06/14 06:40:30;;;;;;;14.52;7.85;;;34.80;53.20;35.40;100776;;;;579282;244;23058;-80
2023/06/14 06:42:58;;;;;;;26.02;8.38;;;35.60;50.70;36.30;100779;;;;578764;244;23075;-79
2023/06/14 06:45:25;;;;;;;11.25;7.28;;;36.60;50.30;36.90;100785;;;;578986;244;23056;-80
2023/06/14 06:47:53;;;;;;;23.15;8.40;;;37.40;49.10;37.00;100784;;;;578871;244;23130;-80
2023/06/14 06:50:25;;;;;;;19.00;8.27;;;37.50;48.20;36.80;100786;;;;579043;244;23114;-80
2023/06/14 06:52:52;;;;;;;14.45;8.60;;;37.40;48.10;37.30;100783;;;;578707;244;23078;-79
2023/06/14 06:55:18;;;;;;;13.13;8.20;;;37.60;47.50;37.60;100783;;;;578558;244;23102;-80
2023/06/14 06:57:45;;;;;;;10.90;6.97;;;37.90;45.70;37.30;100789;;;;578887;244;23086;-79
2023/06/14 07:00:13;;;;;;;12.30;6.28;;;37.80;44.80;36.60;100789;;;;579426;243;24128;-78
2023/06/14 07:02:41;;;;;;;10.88;6.18;;;37.30;42.60;36.20;100793;;;;580235;243;23055;-80
2023/06/14 07:05:09;;;;;;;12.07;5.93;;;36.80;43.80;36.70;100788;;;;579795;244;23076;-80
2023/06/14 07:07:38;;;;;;;8.80;5.87;;;37.10;44.40;37.40;100797;;;;579579;244;23069;-78
2023/06/14 07:10:07;;;;;;;14.25;6.43;;;37.70;43.40;37.00;100792;;;;579470;244;23060;-80
2023/06/14 07:12:38;;;;;;;7.72;5.68;;;37.50;44.10;36.40;100796;;;;576687;244;23106;-80
2023/06/14 07:15:06;;;;;;;9.95;5.78;;;36.50;45.70;35.70;100793;;;;579485;244;23076;-79
2023/06/14 07:17:31;;;;;;;11.07;5.93;;;35.80;45.40;35.10;100801;;;;579404;244;23080;-79
2023/06/14 07:20:00;;;;;;;9.90;5.78;;;35.50;46.30;35.00;100805;;;;579519;244;23079;-78
2023/06/14 07:22:28;;;;;;;9.68;5.45;;;35.50;46.20;36.00;100802;;;;579520;244;23080;-79
2023/06/14 07:24:56;;;;;;;11.95;4.93;;;36.20;46.00;36.80;100808;;;;579561;244;23074;-80
2023/06/14 07:27:24;;;;;;;12.18;5.57;;;37.00;44.90;36.10;100810;;;;579540;244;23096;-78
2023/06/14 07:29:51;;;;;;;18.73;6.18;;;36.70;44.50;35.00;100810;;;;579543;244;23080;-80
2023/06/14 07:32:20;;;;;;;16.02;5.65;;;35.80;45.50;34.20;100818;;;;579480;244;23100;-80
2023/06/14 07:34:47;;;;;;;11.27;5.78;;;35.00;46.50;33.80;100821;;;;579557;244;23071;-79
2023/06/14 07:37:15;;;;;;;14.77;6.30;;;34.40;47.90;33.60;100815;;;;574274;244;35204;-80
2023/06/14 07:39:43;;;;;;;15.30;6.12;;;34.10;48.20;33.30;100812;;;;579221;244;23083;-78
2023/06/14 07:42:11;;;;;;;12.37;5.90;;;33.70;48.40;32.90;100818;;;;578711;244;23112;-81
2023/06/14 07:44:39;;;;;;;12.52;5.03;;;33.40;48.40;32.20;100804;;;;578784;244;23072;-79
2023/06/14 07:47:07;;;;;;;6.87;4.78;;;32.80;48.00;31.60;100806;;;;578769;244;25126;-79
2023/06/14 07:49:35;;;;;;;7.60;4.60;;;32.20;48.60;31.00;100810;;;;578910;244;23106;-79
2023/06/14 07:52:06;;;;;;;10.18;5.10;;;31.60;49.10;30.50;100812;;;;578845;244;23066;-78
2023/06/14 07:54:32;;;;;;;15.85;4.90;;;31.10;50.50;30.10;100805;;;;578329;244;23072;-80
2023/06/14 07:57:00;;;;;;;12.00;4.30;;;30.70;51.50;29.90;100806;;;;578888;244;23068;-80
2023/06/14 07:59:29;;;;;;;20.85;4.95;;;30.40;51.40;29.60;100814;;;;578734;244;23071;-79
2023/06/14 08:01:54;;;;;;;9.80;4.55;;;30.10;52.10;29.30;100803;;;;578597;244;23150;-78
2023/06/14 08:04:23;;;;;;;13.38;5.03;;;29.80;52.60;29.30;100803;;;;578916;244;24116;-78
2023/06/14 08:06:50;;;;;;;10.50;5.35;;;29.70;53.10;31.10;100814;;;;578998;244;23071;-80
2023/06/14 08:09:18;;;;;;;6.45;4.62;;;31.00;51.60;33.10;100809;;;;578934;244;23070;-81
2023/06/14 08:11:46;;;;;;;10.10;5.80;;;32.90;48.60;34.60;100822;;;;579832;243;23087;-80
2023/06/14 08:14:14;;;;;;;9.05;4.82;;;34.60;46.40;34.90;100811;;;;580282;243;24093;-78
2023/06/14 08:16:45;;;;;;;7.35;4.93;;;35.30;44.80;35.10;100822;;;;579894;244;23072;-79
2023/06/14 08:19:10;;;;;;;10.65;5.30;;;35.50;43.40;35.60;100821;;;;579643;244;23098;-79
2023/06/14 08:21:41;;;;;;;4.82;4.37;;;36.00;43.80;36.00;100822;;;;579681;244;23084;-80
2023/06/14 08:24:06;;;;;;;11.43;5.15;;;36.40;42.40;35.60;100830;;;;579009;244;23101;-80
2023/06/14 08:26:34;;;;;;;10.48;5.35;;;36.40;41.90;35.50;100830;;;;579498;244;23083;-80
2023/06/14 08:29:02;;;;;;;11.18;5.07;;;36.20;43.00;35.40;100829;;;;579490;244;23081;-79
2023/06/14 08:31:31;;;;;;;13.45;5.25;;;36.10;43.30;35.00;100825;;;;579366;244;23088;-78
2023/06/14 08:33:57;;;;;;;9.43;5.32;;;35.80;43.70;34.50;100832;;;;579291;244;23112;-78
2023/06/14 08:36:25;;;;;;;10.38;5.03;;;35.30;43.30;33.20;100824;;;;579197;244;24162;-79
2023/06/14 08:38:53;;;;;;;13.50;5.05;;;34.40;44.20;31.80;100829;;;;579290;244;23142;-78
2023/06/14 08:41:25;;;;;;;12.98;5.53;;;33.00;45.40;30.80;100830;;;;579196;244;24174;-80
2023/06/14 08:43:49;;;;;;;8.25;6.12;;;31.90;46.80;29.90;100826;;;;579397;244;23071;-79
2023/06/14 08:46:19;;;;;;;10.68;6.22;;;30.90;48.20;29.30;100831;;;;579189;244;24096;-79
2023/06/14 08:48:45;;;;;;;10.70;5.95;;;30.10;49.90;28.80;100826;;;;578843;244;23089;-80
2023/06/14 08:51:14;;;;;;;10.80;5.15;;;29.50;50.70;28.50;100823;;;;578742;244;23070;-79
2023/06/14 08:53:41;;;;;;;9.98;5.37;;;29.10;50.70;28.50;100822;;;;578612;244;23136;-79
2023/06/14 08:56:13;;;;;;;10.25;5.85;;;28.90;50.70;29.00;100820;;;;578985;244;23075;-79
2023/06/14 08:58:40;;;;;;;11.00;6.87;;;29.30;50.90;30.00;100824;;;;578460;244;23111;-79
2023/06/14 09:01:07;;;;;;;14.93;6.28;;;30.20;49.50;30.30;100822;;;;578779;244;23106;-78
2023/06/14 09:03:33;;;;;;;14.57;7.35;;;30.80;48.50;30.40;100827;;;;578704;244;23078;-79
2023/06/14 09:06:01;;;;;;;17.15;7.50;;;30.90;48.60;30.40;100826;;;;578831;244;23089;-77
2023/06/14 09:08:33;;;;;;;15.13;7.62;;;30.90;48.60;30.40;100827;;;;578991;244;23062;-79
2023/06/14 09:11:00;;;;;;;15.43;7.65;;;30.90;48.90;30.50;100817;;;;578282;244;24094;-79
2023/06/14 09:13:26;;;;;;;14.38;8.25;;;31.00;49.80;30.50;100822;;;;578949;244;23086;-79
2023/06/14 09:15:54;;;;;;;20.15;8.20;;;30.90;49.70;30.60;100818;;;;578768;244;24068;-80
2023/06/14 09:18:22;;;;;;;17.37;8.43;;;31.10;49.10;31.00;100820;;;;578891;244;24157;-79
2023/06/14 09:20:49;;;;;;;17.48;9.05;;;31.40;49.00;31.30;100822;;;;578963;244;23091;-78
2023/06/14 09:23:17;;;;;;;19.45;9.40;;;31.70;48.70;31.50;100824;;;;579345;243;23105;-80
2023/06/14 09:25:45;;;;;;;23.40;10.45;;;32.00;48.80;31.60;100827;;;;579942;243;23083;-79
2023/06/14 09:28:13;;;;;;;17.73;9.73;;;32.20;49.10;31.40;100824;;;;579883;244;23074;-79
2023/06/14 09:30:44;;;;;;;23.55;9.85;;;32.00;48.90;31.20;100814;;;;579880;244;23138;-77
2023/06/14 09:33:13;;;;;;;20.02;10.52;;;31.80;48.60;31.20;100814;;;;579423;244;23086;-80
2023/06/14 09:35:37;;;;;;;17.87;10.50;;;31.80;48.60;31.00;100819;;;;578941;244;23125;-79
2023/06/14 09:38:06;;;;;;;43.10;13.13;;;31.60;47.70;30.60;100820;;;;579423;244;23062;-79
2023/06/14 09:40:37;;;;;;;26.33;14.52;;;31.90;48.90;31.60;100824;;;;579295;244;23086;-80
2023/06/14 09:43:11;;;;;;;26.75;14.02;;;31.80;48.80;33.60;100813;;;;579508;244;23094;-80
2023/06/14 09:45:35;;;;;;;27.73;14.52;;;33.70;46.80;35.30;100824;;;;579341;244;23066;-80
2023/06/14 09:48:06;;;;;;;18.48;9.27;;;35.60;45.30;36.50;100827;;;;578985;244;23091;-80
2023/06/14 09:50:31;;;;;;;17.77;8.80;;;36.90;42.80;37.80;100816;;;;576576;244;23091;-79
2023/06/14 09:53:08;;;;;;;18.25;9.63;;;38.30;40.60;38.00;100814;;;;578755;244;24127;-79
2023/06/14 09:55:36;;;;;;;20.23;8.98;;;38.90;41.10;38.30;100821;;;;578878;244;23097;-81
2023/06/14 09:58:08;;;;;;;10.98;7.97;;;39.30;39.80;38.50;100826;;;;578695;244;23116;-80
2023/06/14 10:00:36;;;;;;;15.70;7.68;;;39.50;38.90;38.60;100818;;;;579081;244;23094;-79
2023/06/14 10:03:05;;;;;;;16.83;7.57;;;39.70;37.70;38.80;100819;;;;578923;244;23123;-78
2023/06/14 10:05:32;;;;;;;11.48;6.45;;;40.00;38.30;38.90;100825;;;;578587;244;23184;-79
2023/06/14 10:08:03;;;;;;;11.65;6.45;;;40.20;37.20;37.80;100821;;;;578989;244;23122;-78
2023/06/14 10:10:28;;;;;;;12.82;7.43;;;39.40;38.30;37.70;100814;;;;573685;246;23103;-80
2023/06/14 10:12:56;;;;;;;9.50;6.20;;;39.00;39.70;38.20;100829;;;;584393;241;23027;-79
2023/06/14 10:15:24;;;;;;;10.30;5.12;;;39.30;39.80;38.90;100817;;;;577825;244;23100;-79
2023/06/14 10:18:04;;;;;;;10.48;4.75;;;39.50;38.40;38.10;100812;;;;578123;244;23138;-79
2023/06/14 10:20:45;;;;;;;7.70;4.68;;;39.50;38.40;37.70;100812;;;;578596;244;23130;-79
2023/06/14 10:23:15;;;;;;;11.45;4.95;;;39.00;40.00;37.50;100818;;;;575500;244;23112;-79
2023/06/14 10:25:43;;;;;;;6.68;4.12;;;38.60;40.70;37.80;100811;;;;582053;244;23082;-80
2023/06/14 10:28:23;;;;;;;12.65;4.18;;;38.80;41.30;37.80;100813;;;;578689;244;23152;-80
2023/06/14 10:31:09;;;;;;;13.27;4.72;;;38.80;41.00;38.00;100813;;;;578925;244;23147;-81
2023/06/14 10:33:52;;;;;;;9.00;4.25;;;39.10;41.30;37.70;100816;;;;577101;244;23080;-80
2023/06/14 10:36:23;;;;;;;7.70;4.45;;;38.90;41.00;36.90;100809;;;;579387;243;23086;-80
2023/06/14 10:39:16;;;;;;;5.32;3.95;;;37.20;41.50;35.90;100809;;;;579677;243;23112;-77
2023/06/14 10:41:53;;;;;;;10.70;4.00;;;37.10;41.40;34.80;100811;;;;579421;244;23100;-79
2023/06/14 10:44:22;;;;;;;7.35;3.70;;;34.50;43.30;33.60;100804;;;;579312;244;23095;-80
2023/06/14 10:46:50;;;;;;;6.32;3.97;;;33.20;44.00;32.70;100810;;;;579614;244;24121;-79
2023/06/14 10:49:21;;;;;;;11.05;4.80;;;33.20;44.00;31.70;100807;;;;579248;244;23075;-79
2023/06/14 10:51:52;;;;;;;10.05;4.93;;;32.20;45.50;30.80;100802;;;;578215;244;24143;-78
2023/06/14 10:54:26;;;;;;;8.35;4.80;;;31.20;47.20;30.00;100799;;;;579312;244;24085;-78
2023/06/14 10:56:51;;;;;;;9.73;6.12;;;30.30;48.70;28.90;100796;;;;573748;244;35210;-80
2023/06/14 10:59:19;;;;;;;9.63;6.47;;;28.70;51.80;28.20;100807;;;;578627;244;24109;-79
2023/06/14 11:02:18;;;;;;;12.60;6.20;;;28.60;51.70;27.30;100793;;;;578903;244;23075;-77
2023/06/14 11:04:56;;;;;;;17.23;6.43;;;27.90;54.10;26.60;100788;;;;560952;244;23067;-79
2023/06/14 11:07:43;;;;;;;15.47;7.73;;;27.20;54.90;26.10;100804;;;;578582;244;23126;-78
2023/06/14 11:10:32;;;;;;;12.67;8.07;;;26.70;54.90;25.50;100798;;;;578936;244;24162;-79
2023/06/14 11:13:00;;;;;;;14.70;6.53;;;26.10;55.90;25.30;100799;;;;579098;244;23070;-78
2023/06/14 11:15:31;;;;;;;11.57;6.83;;;25.70;57.30;25.10;100791;;;;578572;244;24061;-79